sensor_id;sensor_type;location;lat;lon;timestamp;P1;durP1;ratioP1;P2;durP2;ratioP2
19967;SDS011;10145;49.152;9.282;2022-08-21T04:02:25;6.10;;;3.97;;
19967;SDS011;10145;49.152;9.282;2022-08-21T04:04:50;5.75;;;4.00;;
19967;SDS011;10145;49.152;9.282;2022-08-21T04:07:16;6.50;;;4.00;;
19967;SDS011;10145;49.152;9.282;2022-08-21T04:09:42;4.30;;;3.90;;
19967;SDS011;10145;49.152;9.282;2022-08-21T04:12:08;7.45;;;4.15;;
19967;SDS011;10145;49.152;9.282;2022-08-21T04:14:33;4.93;;;4.35;;
19967;SDS011;10145;49.152;9.282;2022-08-21T04:16:59;4.85;;;3.65;;
19967;SDS011;10145;49.152;9.282;2022-08-21T04:19:24;5.30;;;4.07;;
19967;SDS011;10145;49.152;9.282;2022-08-21T04:21:50;6.38;;;4.50;;
19967;SDS011;10145;49.152;9.282;2022-08-21T04:24:15;6.80;;;4.60;;
19967;SDS011;10145;49.152;9.282;2022-08-21T04:26:41;7.43;;;4.53;;
19967;SDS011;10145;49.152;9.282;2022-08-21T04:29:06;5.30;;;4.38;;
19967;SDS011;10145;49.152;9.282;2022-08-21T04:31:33;7.15;;;4.55;;
19967;SDS011;10145;49.152;9.282;2022-08-21T04:34:01;7.03;;;4.63;;
19967;SDS011;10145;49.152;9.282;2022-08-21T04:36:27;7.50;;;4.35;;
19967;SDS011;10145;49.152;9.282;2022-08-21T04:38:52;6.43;;;4.10;;
19967;SDS011;10145;49.152;9.282;2022-08-21T04:41:18;6.72;;;4.57;;
19967;SDS011;10145;49.152;9.282;2022-08-21T04:43:44;6.68;;;4.22;;
19967;SDS011;10145;49.152;9.282;2022-08-21T04:46:09;6.15;;;4.10;;
19967;SDS011;10145;49.152;9.282;2022-08-21T04:48:35;9.02;;;3.97;;
19967;SDS011;10145;49.152;9.282;2022-08-21T04:54:02;4.93;;;4.05;;
19967;SDS011;10145;49.152;9.282;2022-08-21T04:56:38;6.03;;;4.45;;
19967;SDS011;10145;49.152;9.282;2022-08-21T04:59:11;8.85;;;4.47;;
19967;SDS011;10145;49.152;9.282;2022-08-21T05:01:45;5.93;;;4.82;;
19967;SDS011;10145;49.152;9.282;2022-08-21T05:04:12;6.80;;;4.57;;
19967;SDS011;10145;49.152;9.282;2022-08-21T05:06:41;4.82;;;3.85;;
19967;SDS011;10145;49.152;9.282;2022-08-21T05:09:09;6.88;;;4.63;;
19967;SDS011;10145;49.152;9.282;2022-08-21T05:11:39;7.85;;;4.15;;
19967;SDS011;10145;49.152;9.282;2022-08-21T05:14:05;6.82;;;4.25;;
19967;SDS011;10145;49.152;9.282;2022-08-21T05:16:31;6.88;;;4.55;;
19967;SDS011;10145;49.152;9.282;2022-08-21T05:18:56;4.75;;;4.00;;
19967;SDS011;10145;49.152;9.282;2022-08-21T05:21:23;6.53;;;4.28;;
19967;SDS011;10145;49.152;9.282;2022-08-21T05:23:49;6.75;;;4.72;;
19967;SDS011;10145;49.152;9.282;2022-08-21T05:26:14;6.10;;;4.35;;
19967;SDS011;10145;49.152;9.282;2022-08-21T05:28:40;6.25;;;4.47;;
19967;SDS011;10145;49.152;9.282;2022-08-21T05:31:05;8.02;;;4.38;;
19967;SDS011;10145;49.152;9.282;2022-08-21T05:33:31;6.88;;;4.30;;
19967;SDS011;10145;49.152;9.282;2022-08-21T05:35:56;6.82;;;4.45;;
19967;SDS011;10145;49.152;9.282;2022-08-21T05:38:25;7.18;;;4.45;;
19967;SDS011;10145;49.152;9.282;2022-08-21T05:40:52;7.35;;;4.20;;
19967;SDS011;10145;49.152;9.282;2022-08-21T05:43:18;6.10;;;4.25;;
19967;SDS011;10145;49.152;9.282;2022-08-21T05:45:43;5.10;;;4.20;;
19967;SDS011;10145;49.152;9.282;2022-08-21T05:50:36;6.18;;;4.53;;
19967;SDS011;10145;49.152;9.282;2022-08-21T05:53:03;5.80;;;4.60;;
19967;SDS011;10145;49.152;9.282;2022-08-21T05:55:29;4.80;;;4.07;;
19967;SDS011;10145;49.152;9.282;2022-08-21T05:57:54;5.72;;;4.13;;
19967;SDS011;10145;49.152;9.282;2022-08-21T06:00:20;5.53;;;4.47;;
19967;SDS011;10145;49.152;9.282;2022-08-21T06:02:47;7.22;;;4.32;;
19967;SDS011;10145;49.152;9.282;2022-08-21T06:05:13;6.00;;;4.35;;
19967;SDS011;10145;49.152;9.282;2022-08-21T06:07:39;5.03;;;4.10;;
19967;SDS011;10145;49.152;9.282;2022-08-21T06:10:04;8.68;;;4.20;;
19967;SDS011;10145;49.152;9.282;2022-08-21T06:12:30;6.00;;;4.05;;
19967;SDS011;10145;49.152;9.282;2022-08-21T06:14:56;6.30;;;4.35;;
19967;SDS011;10145;49.152;9.282;2022-08-21T06:17:21;7.00;;;4.57;;
19967;SDS011;10145;49.152;9.282;2022-08-21T06:19:51;7.68;;;4.97;;
19967;SDS011;10145;49.152;9.282;2022-08-21T06:22:18;5.70;;;4.18;;
19967;SDS011;10145;49.152;9.282;2022-08-21T06:24:43;4.63;;;3.90;;
19967;SDS011;10145;49.152;9.282;2022-08-21T06:27:09;5.80;;;3.90;;
19967;SDS011;10145;49.152;9.282;2022-08-21T06:29:35;6.78;;;4.20;;
19967;SDS011;10145;49.152;9.282;2022-08-21T06:32:01;5.65;;;3.90;;
19967;SDS011;10145;49.152;9.282;2022-08-21T06:34:27;4.90;;;3.70;;
19967;SDS011;10145;49.152;9.282;2022-08-21T06:36:53;7.25;;;4.50;;
19967;SDS011;10145;49.152;9.282;2022-08-21T06:39:18;6.00;;;4.15;;
19967;SDS011;10145;49.152;9.282;2022-08-21T06:41:44;5.80;;;4.30;;
19967;SDS011;10145;49.152;9.282;2022-08-21T06:44:09;5.25;;;3.60;;
19967;SDS011;10145;49.152;9.282;2022-08-21T06:46:35;5.95;;;3.90;;
19967;SDS011;10145;49.152;9.282;2022-08-21T06:49:00;4.70;;;3.88;;
19967;SDS011;10145;49.152;9.282;2022-08-21T06:51:26;6.00;;;4.07;;
19967;SDS011;10145;49.152;9.282;2022-08-21T06:53:52;6.10;;;4.00;;
19967;SDS011;10145;49.152;9.282;2022-08-21T06:56:18;7.45;;;4.32;;
19967;SDS011;10145;49.152;9.282;2022-08-21T06:58:44;7.55;;;4.30;;
19967;SDS011;10145;49.152;9.282;2022-08-21T07:01:10;7.10;;;3.92;;
19967;SDS011;10145;49.152;9.282;2022-08-21T07:03:37;6.88;;;3.90;;
19967;SDS011;10145;49.152;9.282;2022-08-21T07:06:04;9.48;;;4.15;;
19967;SDS011;10145;49.152;9.282;2022-08-21T07:08:31;9.52;;;3.90;;
19967;SDS011;10145;49.152;9.282;2022-08-21T07:10:57;8.90;;;3.90;;
19967;SDS011;10145;49.152;9.282;2022-08-21T07:13:24;6.20;;;3.97;;
19967;SDS011;10145;49.152;9.282;2022-08-21T07:15:50;6.85;;;3.80;;
19967;SDS011;10145;49.152;9.282;2022-08-21T07:18:16;10.43;;;4.15;;
19967;SDS011;10145;49.152;9.282;2022-08-21T07:20:42;7.10;;;3.80;;
19967;SDS011;10145;49.152;9.282;2022-08-21T07:23:09;5.85;;;3.17;;
19967;SDS011;10145;49.152;9.282;2022-08-21T07:25:37;6.82;;;3.72;;
19967;SDS011;10145;49.152;9.282;2022-08-21T07:28:03;5.85;;;3.70;;
19967;SDS011;10145;49.152;9.282;2022-08-21T07:30:29;7.55;;;3.75;;
19967;SDS011;10145;49.152;9.282;2022-08-21T07:32:55;8.70;;;4.20;;
19967;SDS011;10145;49.152;9.282;2022-08-21T07:35:21;7.28;;;3.92;;
19967;SDS011;10145;49.152;9.282;2022-08-21T07:37:47;7.50;;;4.05;;
19967;SDS011;10145;49.152;9.282;2022-08-21T07:40:13;5.85;;;3.92;;
19967;SDS011;10145;49.152;9.282;2022-08-21T07:42:43;8.18;;;4.10;;
19967;SDS011;10145;49.152;9.282;2022-08-21T07:45:11;7.63;;;3.75;;
19967;SDS011;10145;49.152;9.282;2022-08-21T07:47:38;7.97;;;3.92;;
19967;SDS011;10145;49.152;9.282;2022-08-21T07:50:04;6.85;;;3.92;;
19967;SDS011;10145;49.152;9.282;2022-08-21T07:52:30;8.82;;;4.25;;
19967;SDS011;10145;49.152;9.282;2022-08-21T07:54:57;7.40;;;3.88;;
19967;SDS011;10145;49.152;9.282;2022-08-21T07:57:23;7.43;;;4.22;;
19967;SDS011;10145;49.152;9.282;2022-08-21T07:59:48;8.23;;;4.35;;
19967;SDS011;10145;49.152;9.282;2022-08-21T08:02:27;7.07;;;4.15;;
19967;SDS011;10145;49.152;9.282;2022-08-21T08:04:57;6.82;;;3.85;;
19967;SDS011;10145;49.152;9.282;2022-08-21T08:07:28;7.60;;;4.38;;
19967;SDS011;10145;49.152;9.282;2022-08-21T08:09:53;6.72;;;3.95;;
19967;SDS011;10145;49.152;9.282;2022-08-21T08:12:19;9.20;;;4.20;;
19967;SDS011;10145;49.152;9.282;2022-08-21T08:14:45;8.88;;;4.22;;
19967;SDS011;10145;49.152;9.282;2022-08-21T08:17:11;8.00;;;4.32;;
19967;SDS011;10145;49.152;9.282;2022-08-21T08:19:38;5.32;;;3.78;;
19967;SDS011;10145;49.152;9.282;2022-08-21T08:22:12;8.75;;;4.30;;
19967;SDS011;10145;49.152;9.282;2022-08-21T08:24:42;6.47;;;4.00;;
19967;SDS011;10145;49.152;9.282;2022-08-21T08:27:07;6.60;;;4.40;;
19967;SDS011;10145;49.152;9.282;2022-08-21T08:29:33;7.45;;;4.25;;
19967;SDS011;10145;49.152;9.282;2022-08-21T08:31:58;12.27;;;4.80;;
19967;SDS011;10145;49.152;9.282;2022-08-21T08:34:24;10.10;;;4.78;;
19967;SDS011;10145;49.152;9.282;2022-08-21T08:36:49;8.90;;;4.22;;
19967;SDS011;10145;49.152;9.282;2022-08-21T08:39:15;7.70;;;5.03;;
19967;SDS011;10145;49.152;9.282;2022-08-21T08:41:40;6.40;;;4.60;;
19967;SDS011;10145;49.152;9.282;2022-08-21T08:44:08;7.10;;;4.85;;
19967;SDS011;10145;49.152;9.282;2022-08-21T08:46:35;9.35;;;5.05;;
19967;SDS011;10145;49.152;9.282;2022-08-21T08:49:08;8.48;;;5.10;;
19967;SDS011;10145;49.152;9.282;2022-08-21T08:52:01;9.52;;;4.82;;
19967;SDS011;10145;49.152;9.282;2022-08-21T08:54:34;8.57;;;4.88;;
19967;SDS011;10145;49.152;9.282;2022-08-21T08:57:07;7.82;;;4.82;;
19967;SDS011;10145;49.152;9.282;2022-08-21T08:59:46;7.45;;;4.68;;
19967;SDS011;10145;49.152;9.282;2022-08-21T09:02:15;8.40;;;5.25;;
19967;SDS011;10145;49.152;9.282;2022-08-21T09:04:41;9.23;;;5.40;;
19967;SDS011;10145;49.152;9.282;2022-08-21T09:07:20;8.65;;;4.72;;
19967;SDS011;10145;49.152;9.282;2022-08-21T09:10:19;6.93;;;4.85;;
19967;SDS011;10145;49.152;9.282;2022-08-21T09:13:08;8.60;;;5.05;;
19967;SDS011;10145;49.152;9.282;2022-08-21T09:15:46;7.53;;;4.78;;
19967;SDS011;10145;49.152;9.282;2022-08-21T09:18:36;7.63;;;4.85;;
19967;SDS011;10145;49.152;9.282;2022-08-21T09:24:32;6.18;;;4.60;;
19967;SDS011;10145;49.152;9.282;2022-08-21T09:27:22;8.07;;;4.60;;
19967;SDS011;10145;49.152;9.282;2022-08-21T09:29:48;7.07;;;4.75;;
19967;SDS011;10145;49.152;9.282;2022-08-21T09:32:17;6.20;;;4.32;;
19967;SDS011;10145;49.152;9.282;2022-08-21T09:34:55;6.20;;;4.13;;
19967;SDS011;10145;49.152;9.282;2022-08-21T09:37:30;8.07;;;4.43;;
19967;SDS011;10145;49.152;9.282;2022-08-21T09:39:59;8.85;;;4.57;;
19967;SDS011;10145;49.152;9.282;2022-08-21T09:42:29;5.85;;;4.43;;
19967;SDS011;10145;49.152;9.282;2022-08-21T09:45:12;8.77;;;4.60;;
19967;SDS011;10145;49.152;9.282;2022-08-21T09:47:41;10.65;;;4.20;;
19967;SDS011;10145;49.152;9.282;2022-08-21T09:50:09;8.52;;;4.25;;
19967;SDS011;10145;49.152;9.282;2022-08-21T09:52:46;8.95;;;3.83;;
19967;SDS011;10145;49.152;9.282;2022-08-21T09:55:21;8.00;;;4.00;;
19967;SDS011;10145;49.152;9.282;2022-08-21T09:58:13;7.63;;;3.95;;
19967;SDS011;10145;49.152;9.282;2022-08-21T10:00:40;7.43;;;3.70;;
19967;SDS011;10145;49.152;9.282;2022-08-21T10:03:12;6.97;;;3.92;;
19967;SDS011;10145;49.152;9.282;2022-08-21T10:06:44;6.30;;;3.72;;
19967;SDS011;10145;49.152;9.282;2022-08-21T10:08:48;7.28;;;3.60;;
19967;SDS011;10145;49.152;9.282;2022-08-21T10:11:15;8.52;;;3.50;;
19967;SDS011;10145;49.152;9.282;2022-08-21T10:13:52;5.20;;;3.38;;
19967;SDS011;10145;49.152;9.282;2022-08-21T10:21:35;9.63;;;4.00;;
19967;SDS011;10145;49.152;9.282;2022-08-21T10:26:54;8.82;;;3.65;;
19967;SDS011;10145;49.152;9.282;2022-08-21T10:31:53;6.18;;;3.20;;
19967;SDS011;10145;49.152;9.282;2022-08-21T10:48:33;6.47;;;2.88;;
19967;SDS011;10145;49.152;9.282;2022-08-21T10:53:39;5.43;;;3.47;;
19967;SDS011;10145;49.152;9.282;2022-08-21T10:56:17;6.43;;;3.15;;
19967;SDS011;10145;49.152;9.282;2022-08-21T11:04:11;9.57;;;4.40;;
19967;SDS011;10145;49.152;9.282;2022-08-21T11:06:37;9.68;;;4.55;;
19967;SDS011;10145;49.152;9.282;2022-08-21T11:09:25;7.60;;;4.15;;
19967;SDS011;10145;49.152;9.282;2022-08-21T11:14:55;13.75;;;8.10;;
19967;SDS011;10145;49.152;9.282;2022-08-21T11:17:30;6.63;;;3.80;;
19967;SDS011;10145;49.152;9.282;2022-08-21T11:20:46;9.35;;;6.40;;
19967;SDS011;10145;49.152;9.282;2022-08-21T11:23:18;6.68;;;3.95;;
19967;SDS011;10145;49.152;9.282;2022-08-21T11:25:53;6.75;;;3.50;;
19967;SDS011;10145;49.152;9.282;2022-08-21T11:28:47;5.53;;;3.38;;
19967;SDS011;10145;49.152;9.282;2022-08-21T11:31:34;8.48;;;4.53;;
19967;SDS011;10145;49.152;9.282;2022-08-21T11:34:17;6.72;;;3.90;;
19967;SDS011;10145;49.152;9.282;2022-08-21T11:37:10;6.38;;;3.40;;
19967;SDS011;10145;49.152;9.282;2022-08-21T11:40:02;9.43;;;4.88;;
19967;SDS011;10145;49.152;9.282;2022-08-21T11:42:31;6.05;;;4.22;;
19967;SDS011;10145;49.152;9.282;2022-08-21T11:50:30;5.65;;;3.20;;
19967;SDS011;10145;49.152;9.282;2022-08-21T11:53:17;6.65;;;3.35;;
19967;SDS011;10145;49.152;9.282;2022-08-21T11:55:54;8.30;;;3.45;;
19967;SDS011;10145;49.152;9.282;2022-08-21T11:58:29;5.20;;;3.20;;
19967;SDS011;10145;49.152;9.282;2022-08-21T12:01:03;5.95;;;3.15;;
19967;SDS011;10145;49.152;9.282;2022-08-21T12:03:34;4.88;;;2.95;;
19967;SDS011;10145;49.152;9.282;2022-08-21T12:06:10;6.18;;;3.45;;
19967;SDS011;10145;49.152;9.282;2022-08-21T12:08:41;4.95;;;3.42;;
19967;SDS011;10145;49.152;9.282;2022-08-21T12:13:57;6.45;;;3.42;;
19967;SDS011;10145;49.152;9.282;2022-08-21T12:19:09;5.43;;;3.00;;
19967;SDS011;10145;49.152;9.282;2022-08-21T12:22:06;6.20;;;3.15;;
19967;SDS011;10145;49.152;9.282;2022-08-21T12:29:47;4.85;;;3.17;;
19967;SDS011;10145;49.152;9.282;2022-08-21T12:32:22;6.78;;;3.13;;
19967;SDS011;10145;49.152;9.282;2022-08-21T12:34:55;6.07;;;2.55;;
19967;SDS011;10145;49.152;9.282;2022-08-21T12:37:45;5.55;;;3.30;;
19967;SDS011;10145;49.152;9.282;2022-08-21T12:40:31;5.18;;;2.92;;
19967;SDS011;10145;49.152;9.282;2022-08-21T12:43:06;6.32;;;3.15;;
19967;SDS011;10145;49.152;9.282;2022-08-21T12:45:47;7.72;;;3.20;;
19967;SDS011;10145;49.152;9.282;2022-08-21T12:48:15;8.13;;;3.17;;
19967;SDS011;10145;49.152;9.282;2022-08-21T12:50:51;5.60;;;2.97;;
19967;SDS011;10145;49.152;9.282;2022-08-21T12:55:47;5.22;;;3.17;;
19967;SDS011;10145;49.152;9.282;2022-08-21T12:58:17;5.07;;;3.20;;
19967;SDS011;10145;49.152;9.282;2022-08-21T13:00:49;5.95;;;3.00;;
19967;SDS011;10145;49.152;9.282;2022-08-21T13:03:17;4.32;;;2.72;;
19967;SDS011;10145;49.152;9.282;2022-08-21T13:05:42;7.10;;;3.15;;
19967;SDS011;10145;49.152;9.282;2022-08-21T13:08:09;7.45;;;3.25;;
19967;SDS011;10145;49.152;9.282;2022-08-21T13:10:37;4.88;;;3.00;;
19967;SDS011;10145;49.152;9.282;2022-08-21T13:13:06;6.63;;;3.05;;
19967;SDS011;10145;49.152;9.282;2022-08-21T13:15:35;6.50;;;3.20;;
19967;SDS011;10145;49.152;9.282;2022-08-21T13:18:05;4.38;;;2.97;;
19967;SDS011;10145;49.152;9.282;2022-08-21T13:20:34;6.38;;;2.90;;
19967;SDS011;10145;49.152;9.282;2022-08-21T13:23:07;4.07;;;2.60;;
19967;SDS011;10145;49.152;9.282;2022-08-21T13:25:52;5.80;;;3.55;;
19967;SDS011;10145;49.152;9.282;2022-08-21T13:28:18;7.68;;;3.58;;
19967;SDS011;10145;49.152;9.282;2022-08-21T13:30:44;5.53;;;2.80;;
19967;SDS011;10145;49.152;9.282;2022-08-21T13:33:15;8.00;;;3.13;;
19967;SDS011;10145;49.152;9.282;2022-08-21T13:38:23;4.53;;;2.72;;
19967;SDS011;10145;49.152;9.282;2022-08-21T13:40:59;5.43;;;2.55;;
19967;SDS011;10145;49.152;9.282;2022-08-21T13:43:31;7.75;;;3.25;;
19967;SDS011;10145;49.152;9.282;2022-08-21T13:45:58;6.22;;;2.92;;
19967;SDS011;10145;49.152;9.282;2022-08-21T13:48:28;5.25;;;3.10;;
19967;SDS011;10145;49.152;9.282;2022-08-21T13:50:56;4.60;;;2.78;;
19967;SDS011;10145;49.152;9.282;2022-08-21T13:53:35;5.03;;;3.10;;
19967;SDS011;10145;49.152;9.282;2022-08-21T13:56:09;8.15;;;3.10;;
19967;SDS011;10145;49.152;9.282;2022-08-21T13:58:55;7.15;;;3.30;;
19967;SDS011;10145;49.152;9.282;2022-08-21T14:01:23;5.60;;;2.92;;
19967;SDS011;10145;49.152;9.282;2022-08-21T14:03:59;4.97;;;3.05;;
19967;SDS011;10145;49.152;9.282;2022-08-21T14:06:35;4.78;;;2.53;;
19967;SDS011;10145;49.152;9.282;2022-08-21T14:09:13;4.40;;;3.08;;
19967;SDS011;10145;49.152;9.282;2022-08-21T14:11:53;3.88;;;2.70;;
19967;SDS011;10145;49.152;9.282;2022-08-21T14:14:24;6.40;;;3.17;;
19967;SDS011;10145;49.152;9.282;2022-08-21T14:16:55;4.72;;;3.20;;
19967;SDS011;10145;49.152;9.282;2022-08-21T14:19:40;3.70;;;2.97;;
19967;SDS011;10145;49.152;9.282;2022-08-21T14:25:03;4.50;;;3.00;;
19967;SDS011;10145;49.152;9.282;2022-08-21T14:27:31;5.68;;;3.38;;
19967;SDS011;10145;49.152;9.282;2022-08-21T14:29:59;4.75;;;2.75;;
19967;SDS011;10145;49.152;9.282;2022-08-21T14:32:29;3.55;;;2.85;;
19967;SDS011;10145;49.152;9.282;2022-08-21T14:35:01;4.72;;;3.05;;
19967;SDS011;10145;49.152;9.282;2022-08-21T14:37:26;5.13;;;3.33;;
19967;SDS011;10145;49.152;9.282;2022-08-21T14:39:52;4.80;;;3.13;;
19967;SDS011;10145;49.152;9.282;2022-08-21T14:42:18;7.68;;;3.38;;
19967;SDS011;10145;49.152;9.282;2022-08-21T14:44:44;5.82;;;2.95;;
19967;SDS011;10145;49.152;9.282;2022-08-21T14:47:09;4.47;;;3.50;;
19967;SDS011;10145;49.152;9.282;2022-08-21T14:49:35;5.50;;;2.90;;
19967;SDS011;10145;49.152;9.282;2022-08-21T14:52:01;6.53;;;2.95;;
19967;SDS011;10145;49.152;9.282;2022-08-21T14:54:28;4.65;;;2.58;;
19967;SDS011;10145;49.152;9.282;2022-08-21T14:56:54;5.47;;;4.55;;
19967;SDS011;10145;49.152;9.282;2022-08-21T14:59:21;7.03;;;5.70;;
19967;SDS011;10145;49.152;9.282;2022-08-21T15:01:48;7.22;;;4.13;;
19967;SDS011;10145;49.152;9.282;2022-08-21T15:04:14;4.38;;;3.05;;
19967;SDS011;10145;49.152;9.282;2022-08-21T15:06:40;3.30;;;2.65;;
19967;SDS011;10145;49.152;9.282;2022-08-21T15:09:05;6.22;;;3.15;;
19967;SDS011;10145;49.152;9.282;2022-08-21T15:11:32;4.22;;;3.05;;
19967;SDS011;10145;49.152;9.282;2022-08-21T15:13:59;3.97;;;2.80;;
19967;SDS011;10145;49.152;9.282;2022-08-21T15:16:27;5.57;;;2.72;;
19967;SDS011;10145;49.152;9.282;2022-08-21T15:18:55;4.00;;;2.90;;
19967;SDS011;10145;49.152;9.282;2022-08-21T15:21:21;3.97;;;2.95;;
19967;SDS011;10145;49.152;9.282;2022-08-21T15:23:47;3.72;;;3.13;;
19967;SDS011;10145;49.152;9.282;2022-08-21T15:26:12;4.03;;;2.85;;
19967;SDS011;10145;49.152;9.282;2022-08-21T15:28:38;3.80;;;2.60;;
19967;SDS011;10145;49.152;9.282;2022-08-21T15:31:04;3.95;;;2.60;;
19967;SDS011;10145;49.152;9.282;2022-08-21T15:33:31;5.47;;;2.83;;
19967;SDS011;10145;49.152;9.282;2022-08-21T15:35:57;3.50;;;2.55;;
19967;SDS011;10145;49.152;9.282;2022-08-21T15:38:23;5.45;;;2.90;;
19967;SDS011;10145;49.152;9.282;2022-08-21T15:40:49;6.03;;;3.00;;
19967;SDS011;10145;49.152;9.282;2022-08-21T15:43:18;4.55;;;3.33;;
19967;SDS011;10145;49.152;9.282;2022-08-21T15:45:48;3.40;;;2.85;;
19967;SDS011;10145;49.152;9.282;2022-08-21T15:48:14;3.13;;;2.55;;
19967;SDS011;10145;49.152;9.282;2022-08-21T15:50:39;4.18;;;2.90;;
19967;SDS011;10145;49.152;9.282;2022-08-21T15:53:05;4.68;;;3.15;;
19967;SDS011;10145;49.152;9.282;2022-08-21T15:55:32;5.00;;;2.90;;
19967;SDS011;10145;49.152;9.282;2022-08-21T15:57:58;6.00;;;3.35;;
19967;SDS011;10145;49.152;9.282;2022-08-21T16:00:24;4.68;;;2.75;;
19967;SDS011;10145;49.152;9.282;2022-08-21T16:02:51;3.90;;;2.80;;
19967;SDS011;10145;49.152;9.282;2022-08-21T16:05:20;4.40;;;2.78;;
19967;SDS011;10145;49.152;9.282;2022-08-21T16:07:47;5.25;;;3.13;;
19967;SDS011;10145;49.152;9.282;2022-08-21T16:10:14;3.83;;;2.50;;
19967;SDS011;10145;49.152;9.282;2022-08-21T16:12:43;4.43;;;2.92;;
19967;SDS011;10145;49.152;9.282;2022-08-21T16:15:13;5.13;;;2.90;;
19967;SDS011;10145;49.152;9.282;2022-08-21T16:17:41;5.93;;;2.55;;
19967;SDS011;10145;49.152;9.282;2022-08-21T16:20:13;3.88;;;2.70;;
19967;SDS011;10145;49.152;9.282;2022-08-21T16:22:40;3.42;;;2.60;;
19967;SDS011;10145;49.152;9.282;2022-08-21T16:25:06;5.03;;;2.67;;
19967;SDS011;10145;49.152;9.282;2022-08-21T16:27:33;4.72;;;2.80;;
19967;SDS011;10145;49.152;9.282;2022-08-21T16:29:59;5.80;;;2.92;;
19967;SDS011;10145;49.152;9.282;2022-08-21T16:32:25;5.68;;;2.60;;
19967;SDS011;10145;49.152;9.282;2022-08-21T16:34:51;3.97;;;2.70;;
19967;SDS011;10145;49.152;9.282;2022-08-21T16:37:17;4.03;;;2.45;;
19967;SDS011;10145;49.152;9.282;2022-08-21T16:39:43;6.22;;;3.00;;
19967;SDS011;10145;49.152;9.282;2022-08-21T16:42:12;5.30;;;2.80;;
19967;SDS011;10145;49.152;9.282;2022-08-21T16:44:42;3.03;;;2.50;;
19967;SDS011;10145;49.152;9.282;2022-08-21T16:47:07;4.97;;;2.88;;
19967;SDS011;10145;49.152;9.282;2022-08-21T16:49:33;5.63;;;2.90;;
19967;SDS011;10145;49.152;9.282;2022-08-21T16:51:59;5.25;;;2.78;;
19967;SDS011;10145;49.152;9.282;2022-08-21T16:54:25;4.80;;;2.85;;
19967;SDS011;10145;49.152;9.282;2022-08-21T16:56:50;6.07;;;2.67;;
19967;SDS011;10145;49.152;9.282;2022-08-21T16:59:16;7.15;;;2.95;;
19967;SDS011;10145;49.152;9.282;2022-08-21T17:01:42;5.22;;;2.80;;
19967;SDS011;10145;49.152;9.282;2022-08-21T17:04:07;5.30;;;2.85;;
19967;SDS011;10145;49.152;9.282;2022-08-21T17:06:33;4.47;;;2.90;;
19967;SDS011;10145;49.152;9.282;2022-08-21T17:08:59;4.68;;;2.95;;
19967;SDS011;10145;49.152;9.282;2022-08-21T17:11:29;3.97;;;2.42;;
19967;SDS011;10145;49.152;9.282;2022-08-21T17:13:57;4.93;;;2.45;;
19967;SDS011;10145;49.152;9.282;2022-08-21T17:16:25;4.82;;;2.60;;
19967;SDS011;10145;49.152;9.282;2022-08-21T17:18:51;3.22;;;2.50;;
19967;SDS011;10145;49.152;9.282;2022-08-21T17:21:16;3.75;;;2.65;;
19967;SDS011;10145;49.152;9.282;2022-08-21T17:23:44;4.20;;;2.55;;
19967;SDS011;10145;49.152;9.282;2022-08-21T17:26:11;7.18;;;2.80;;
19967;SDS011;10145;49.152;9.282;2022-08-21T17:28:38;4.35;;;2.78;;
19967;SDS011;10145;49.152;9.282;2022-08-21T17:31:04;5.40;;;2.80;;
19967;SDS011;10145;49.152;9.282;2022-08-21T17:33:34;7.82;;;3.08;;
19967;SDS011;10145;49.152;9.282;2022-08-21T17:36:03;5.20;;;2.92;;
19967;SDS011;10145;49.152;9.282;2022-08-21T17:38:30;5.47;;;2.58;;
19967;SDS011;10145;49.152;9.282;2022-08-21T17:40:55;4.00;;;2.50;;
19967;SDS011;10145;49.152;9.282;2022-08-21T17:43:21;4.35;;;2.30;;
19967;SDS011;10145;49.152;9.282;2022-08-21T17:45:48;4.00;;;2.50;;
19967;SDS011;10145;49.152;9.282;2022-08-21T17:48:14;3.95;;;2.45;;
19967;SDS011;10145;49.152;9.282;2022-08-21T17:50:40;5.20;;;2.50;;
19967;SDS011;10145;49.152;9.282;2022-08-21T17:53:06;5.20;;;2.58;;
19967;SDS011;10145;49.152;9.282;2022-08-21T17:55:32;3.05;;;2.65;;
19967;SDS011;10145;49.152;9.282;2022-08-21T17:57:58;4.15;;;2.60;;
19967;SDS011;10145;49.152;9.282;2022-08-21T18:00:26;5.60;;;2.63;;
19967;SDS011;10145;49.152;9.282;2022-08-21T18:03:04;4.90;;;2.60;;
19967;SDS011;10145;49.152;9.282;2022-08-21T18:05:32;6.07;;;2.95;;
19967;SDS011;10145;49.152;9.282;2022-08-21T18:07:58;6.47;;;3.00;;
19967;SDS011;10145;49.152;9.282;2022-08-21T18:10:24;5.60;;;2.50;;
19967;SDS011;10145;49.152;9.282;2022-08-21T18:12:50;4.93;;;2.75;;
19967;SDS011;10145;49.152;9.282;2022-08-21T18:15:16;5.70;;;3.00;;
19967;SDS011;10145;49.152;9.282;2022-08-21T18:17:45;4.57;;;2.75;;
19967;SDS011;10145;49.152;9.282;2022-08-21T18:20:13;5.28;;;2.40;;
19967;SDS011;10145;49.152;9.282;2022-08-21T18:22:43;4.93;;;2.75;;
19967;SDS011;10145;49.152;9.282;2022-08-21T18:25:09;4.00;;;2.50;;
19967;SDS011;10145;49.152;9.282;2022-08-21T18:27:34;3.17;;;2.45;;
19967;SDS011;10145;49.152;9.282;2022-08-21T18:30:00;5.53;;;3.05;;
19967;SDS011;10145;49.152;9.282;2022-08-21T18:32:28;7.03;;;3.08;;
19967;SDS011;10145;49.152;9.282;2022-08-21T18:34:54;5.40;;;3.30;;
19967;SDS011;10145;49.152;9.282;2022-08-21T18:37:21;3.97;;;2.83;;
19967;SDS011;10145;49.152;9.282;2022-08-21T18:39:47;5.05;;;2.90;;
19967;SDS011;10145;49.152;9.282;2022-08-21T18:42:13;3.83;;;2.80;;
19967;SDS011;10145;49.152;9.282;2022-08-21T18:44:42;6.97;;;3.20;;
19967;SDS011;10145;49.152;9.282;2022-08-21T18:47:12;5.03;;;2.80;;
19967;SDS011;10145;49.152;9.282;2022-08-21T18:49:44;6.55;;;3.17;;
19967;SDS011;10145;49.152;9.282;2022-08-21T18:52:10;4.68;;;3.05;;
19967;SDS011;10145;49.152;9.282;2022-08-21T18:54:35;5.65;;;2.88;;
19967;SDS011;10145;49.152;9.282;2022-08-21T18:57:01;4.47;;;3.00;;
19967;SDS011;10145;49.152;9.282;2022-08-21T18:59:27;6.07;;;3.05;;
19967;SDS011;10145;49.152;9.282;2022-08-21T19:01:54;6.82;;;3.20;;
19967;SDS011;10145;49.152;9.282;2022-08-21T19:04:21;4.68;;;3.40;;
19967;SDS011;10145;49.152;9.282;2022-08-21T19:06:46;5.68;;;3.00;;
19967;SDS011;10145;49.152;9.282;2022-08-21T19:09:13;6.88;;;3.33;;
19967;SDS011;10145;49.152;9.282;2022-08-21T19:11:39;4.05;;;3.10;;
19967;SDS011;10145;49.152;9.282;2022-08-21T19:14:10;4.50;;;2.90;;
19967;SDS011;10145;49.152;9.282;2022-08-21T19:16:38;5.28;;;3.30;;
19967;SDS011;10145;49.152;9.282;2022-08-21T19:19:06;5.97;;;3.00;;
19967;SDS011;10145;49.152;9.282;2022-08-21T19:21:33;4.18;;;3.00;;
19967;SDS011;10145;49.152;9.282;2022-08-21T19:23:59;4.97;;;3.40;;
19967;SDS011;10145;49.152;9.282;2022-08-21T19:26:25;6.97;;;3.85;;
19967;SDS011;10145;49.152;9.282;2022-08-21T19:28:53;6.10;;;3.13;;
19967;SDS011;10145;49.152;9.282;2022-08-21T19:31:23;3.83;;;3.00;;
19967;SDS011;10145;49.152;9.282;2022-08-21T19:33:57;8.68;;;3.10;;
19967;SDS011;10145;49.152;9.282;2022-08-21T19:36:29;6.15;;;2.92;;
19967;SDS011;10145;49.152;9.282;2022-08-21T19:38:55;5.18;;;2.63;;
19967;SDS011;10145;49.152;9.282;2022-08-21T19:41:24;5.85;;;2.90;;
19967;SDS011;10145;49.152;9.282;2022-08-21T19:43:53;5.30;;;3.08;;
19967;SDS011;10145;49.152;9.282;2022-08-21T19:46:22;5.43;;;3.30;;
19967;SDS011;10145;49.152;9.282;2022-08-21T19:48:52;7.22;;;3.47;;
19967;SDS011;10145;49.152;9.282;2022-08-21T19:51:19;6.88;;;3.22;;
19967;SDS011;10145;49.152;9.282;2022-08-21T19:53:45;4.65;;;2.90;;
19967;SDS011;10145;49.152;9.282;2022-08-21T19:56:11;7.10;;;3.20;;
19967;SDS011;10145;49.152;9.282;2022-08-21T19:58:42;7.95;;;3.40;;
19967;SDS011;10145;49.152;9.282;2022-08-21T20:01:11;6.50;;;3.38;;
19967;SDS011;10145;49.152;9.282;2022-08-21T20:03:37;5.65;;;3.28;;
19967;SDS011;10145;49.152;9.282;2022-08-21T20:06:03;6.38;;;3.17;;
19967;SDS011;10145;49.152;9.282;2022-08-21T20:08:28;5.10;;;3.03;;
19967;SDS011;10145;49.152;9.282;2022-08-21T20:10:55;5.13;;;2.95;;